Check out our new PWSWeather beta!
PWSweather.com
Personal Weather Stations
Station Observations
PICKERING
North Yorkshire, PickeringGB

North YorkshirePickeringGB

Lat: 54.2494, Lon: -0.7725

Elevation: 192

Station Type: Oregon Scientific WMR100

Latest ConditionsUpdated 6:50:00 PM GMT Monday, Feb 24, 2020
Currently Today's Max Today's Min Today's Average
Temperature 41.9°F5.5°C 49.1°F9.5°C 32.9°F0.5°C 38.1°F3.4°C
Dew Point 33.8°F1.0°C 46.4°F8.0°C 26.6°F-3.0°C 32.5°F0.3°C
Winds 17.2 mph N27.7 kmh N 22.9 mph -36.9 kmh - - 5.6 mph 9.0 kmh
Wind Gusts 24.4 mph39.3 kmh 32.7 mph52.6 kmh - -
Humidity 72% 88% 71% 79%
Pressure 29.30 in992.2 mb 30.09 in1019.0 mb 29.24 in990.2 mb -
Precipitation - 0.57 in14.5 mm - -
Hour Temp Dew Point Humidity Winds Wind Gusts Pressure Precip Precip Rate Daily Precip Total
06:50 PM 41.9°F5.5°C 33.8°F1.0°C 72% 17.2 mph N27.7 kmh N 24.4 mph39.3 kmh 29.30 in992.2 mb 0.00 in0.0 mm 0.00 in0.0 mm 0.57 in14.5 mm
06:40 PM 42.1°F5.6°C 33.8°F1.0°C 72% 18.9 mph N30.4 kmh N 24.4 mph39.3 kmh 29.30 in992.2 mb 0.00 in0.0 mm 0.00 in0.0 mm 0.57 in14.5 mm
06:30 PM 42.3°F5.7°C 33.8°F1.0°C 73% 18.7 mph N30.1 kmh N 22.8 mph36.7 kmh 29.30 in992.2 mb 0.00 in0.0 mm 0.00 in0.0 mm 0.57 in14.5 mm
06:20 PM 42.3°F5.7°C 35.6°F2.0°C 74% 18.2 mph N29.3 kmh N 31.1 mph50.1 kmh 29.27 in991.2 mb 0.00 in0.0 mm 0.00 in0.0 mm 0.57 in14.5 mm
06:10 PM 42.6°F5.9°C 35.6°F2.0°C 75% 15.2 mph N24.5 kmh N 24.4 mph39.3 kmh 29.27 in991.2 mb 0.00 in0.0 mm 0.00 in0.0 mm 0.57 in14.5 mm
06:00 PM 42.4°F5.8°C 37.4°F3.0°C 77% 15.5 mph N24.9 kmh N 26.6 mph42.8 kmh 29.27 in991.2 mb 0.00 in0.0 mm 0.00 in0.0 mm 0.57 in14.5 mm
05:50 PM 43.0°F6.1°C 37.4°F3.0°C 78% 17.4 mph N28.0 kmh N 24.4 mph39.3 kmh 29.27 in991.2 mb 0.00 in0.0 mm 0.00 in0.0 mm 0.57 in14.5 mm
05:40 PM 43.7°F6.5°C 37.4°F3.0°C 79% 13.4 mph N21.6 kmh N 23.3 mph37.5 kmh 29.27 in991.2 mb 0.00 in0.0 mm 0.00 in0.0 mm 0.57 in14.5 mm
05:30 PM 44.1°F6.7°C 37.4°F3.0°C 79% 16.2 mph N26.1 kmh N 23.0 mph37.0 kmh 29.27 in991.2 mb 0.00 in0.0 mm 0.00 in0.0 mm 0.57 in14.5 mm
05:20 PM 44.4°F6.9°C 39.2°F4.0°C 79% 17.1 mph N27.5 kmh N 24.6 mph39.6 kmh 29.27 in991.2 mb 0.00 in0.0 mm 0.00 in0.0 mm 0.57 in14.5 mm
05:10 PM 44.6°F7.0°C 39.2°F4.0°C 79% 13.2 mph N21.2 kmh N 23.7 mph38.1 kmh 29.27 in991.2 mb 0.00 in0.0 mm 0.00 in0.0 mm 0.57 in14.5 mm
05:00 PM 44.8°F7.1°C 39.2°F4.0°C 79% 14.8 mph N23.8 kmh N 19.9 mph32.0 kmh 29.27 in991.2 mb 0.00 in0.0 mm 0.00 in0.0 mm 0.57 in14.5 mm
04:50 PM 45.3°F7.4°C 39.2°F4.0°C 79% 18.1 mph N29.1 kmh N 23.7 mph38.1 kmh 29.27 in991.2 mb 0.00 in0.0 mm 0.00 in0.0 mm 0.57 in14.5 mm
04:40 PM 46.4°F8.0°C 41.0°F5.0°C 79% 17.6 mph N28.3 kmh N 20.4 mph32.8 kmh 29.27 in991.2 mb 0.00 in0.0 mm 0.00 in0.0 mm 0.57 in14.5 mm
04:30 PM 46.9°F8.3°C 41.0°F5.0°C 79% 22.9 mph N36.9 kmh N 32.7 mph52.6 kmh 29.27 in991.2 mb 0.00 in0.0 mm 0.00 in0.0 mm 0.57 in14.5 mm
04:20 PM 47.3°F8.5°C 42.8°F6.0°C 81% 17.6 mph N28.3 kmh N 22.8 mph36.7 kmh 29.27 in991.2 mb 0.00 in0.0 mm 0.00 in0.0 mm 0.57 in14.5 mm
04:10 PM 47.8°F8.8°C 42.8°F6.0°C 83% 15.0 mph N24.1 kmh N 24.4 mph39.3 kmh 29.24 in990.2 mb 0.00 in0.0 mm 0.00 in0.0 mm 0.57 in14.5 mm
04:00 PM 48.6°F9.2°C 44.6°F7.0°C 84% 12.2 mph N19.6 kmh N 16.6 mph26.7 kmh 29.24 in990.2 mb 0.00 in0.0 mm 0.00 in0.0 mm 0.57 in14.5 mm
03:50 PM 48.6°F9.2°C 44.6°F7.0°C 85% 12.9 mph N20.8 kmh N 26.6 mph42.8 kmh 29.27 in991.2 mb 0.00 in0.0 mm 0.00 in0.0 mm 0.57 in14.5 mm
03:40 PM 48.6°F9.2°C 46.4°F8.0°C 87% 9.0 mph N14.5 kmh N 13.4 mph21.6 kmh 29.27 in991.2 mb 0.00 in0.0 mm 0.00 in0.0 mm 0.57 in14.5 mm
03:30 PM 48.7°F9.3°C 46.4°F8.0°C 87% 9.6 mph N15.4 kmh N 13.0 mph20.9 kmh 29.27 in991.2 mb 0.00 in0.0 mm 0.00 in0.0 mm 0.57 in14.5 mm
03:20 PM 48.7°F9.3°C 46.4°F8.0°C 87% 8.0 mph N12.9 kmh N 17.2 mph27.7 kmh 29.27 in991.2 mb 0.00 in0.0 mm 0.00 in0.0 mm 0.57 in14.5 mm
03:10 PM 49.1°F9.5°C 46.4°F8.0°C 87% 7.1 mph N11.4 kmh N 11.0 mph17.7 kmh 29.27 in991.2 mb 0.00 in0.0 mm 0.00 in0.0 mm 0.57 in14.5 mm
03:00 PM 48.6°F9.2°C 46.4°F8.0°C 87% 8.6 mph N13.8 kmh N 15.2 mph24.5 kmh 29.27 in991.2 mb 0.06 in1.5 mm 0.00 in0.0 mm 0.57 in14.5 mm
02:50 PM 47.8°F8.8°C 44.6°F7.0°C 87% 7.5 mph N12.1 kmh N 12.1 mph19.5 kmh 29.27 in991.2 mb 0.06 in1.5 mm 0.00 in0.0 mm 0.57 in14.5 mm
02:40 PM 47.7°F8.7°C 44.6°F7.0°C 88% 6.8 mph N10.9 kmh N 11.0 mph17.7 kmh 29.27 in991.2 mb 0.06 in1.5 mm 0.00 in0.0 mm 0.57 in14.5 mm
02:30 PM 46.9°F8.3°C 44.6°F7.0°C 88% 4.7 mph N7.6 kmh N 8.7 mph14.0 kmh 29.27 in991.2 mb 0.06 in1.5 mm 0.00 in0.0 mm 0.57 in14.5 mm
02:20 PM 45.0°F7.2°C 42.8°F6.0°C 88% 5.9 mph N9.5 kmh N 11.9 mph19.2 kmh 29.27 in991.2 mb 0.11 in2.8 mm 0.00 in0.0 mm 0.57 in14.5 mm
02:10 PM 44.2°F6.8°C 41.0°F5.0°C 87% 2.6 mph N4.2 kmh N 11.9 mph19.2 kmh 29.27 in991.2 mb 0.11 in2.8 mm 0.30 in7.6 mm 0.57 in14.5 mm
02:00 PM 43.0°F6.1°C 39.2°F4.0°C 87% 0.3 mph N0.5 kmh N 1.1 mph1.8 kmh 29.27 in991.2 mb 0.06 in1.5 mm 0.00 in0.0 mm 0.52 in13.2 mm
01:50 PM 41.9°F5.5°C 39.2°F4.0°C 86% 0.2 mph N0.3 kmh N 0.9 mph1.4 kmh 29.27 in991.2 mb 0.06 in1.5 mm 0.00 in0.0 mm 0.52 in13.2 mm
01:40 PM 41.5°F5.3°C 37.4°F3.0°C 85% 1.7 mph N2.7 kmh N 2.5 mph4.0 kmh 29.30 in992.2 mb 0.11 in2.8 mm 0.00 in0.0 mm 0.52 in13.2 mm
01:30 PM 41.4°F5.2°C 37.4°F3.0°C 85% 2.1 mph N3.4 kmh N 3.4 mph5.5 kmh 29.30 in992.2 mb 0.11 in2.8 mm 0.30 in7.6 mm 0.52 in13.2 mm
01:20 PM 41.2°F5.1°C 37.4°F3.0°C 85% 0.7 mph N1.1 kmh N 1.6 mph2.6 kmh 29.30 in992.2 mb 0.06 in1.5 mm 0.00 in0.0 mm 0.46 in11.7 mm
01:10 PM 40.8°F4.9°C 37.4°F3.0°C 84% 1.6 mph N2.6 kmh N 2.5 mph4.0 kmh 29.30 in992.2 mb 0.11 in2.8 mm 0.00 in0.0 mm 0.46 in11.7 mm
01:00 PM 40.3°F4.6°C 35.6°F2.0°C 84% 2.0 mph N3.2 kmh N 3.4 mph5.5 kmh 29.30 in992.2 mb 0.11 in2.8 mm 0.06 in1.5 mm 0.46 in11.7 mm
12:50 PM 39.9°F4.4°C 35.6°F2.0°C 84% 1.5 mph N2.4 kmh N 2.5 mph4.0 kmh 29.30 in992.2 mb 0.06 in1.5 mm 0.00 in0.0 mm 0.41 in10.4 mm
12:40 PM 39.7°F4.3°C 35.6°F2.0°C 84% 0.8 mph N1.3 kmh N 2.5 mph4.0 kmh 29.33 in993.2 mb 0.06 in1.5 mm 0.00 in0.0 mm 0.41 in10.4 mm
12:30 PM 39.0°F3.9°C 33.8°F1.0°C 83% 1.0 mph N1.6 kmh N 4.0 mph6.4 kmh 29.33 in993.2 mb 0.13 in3.3 mm 0.00 in0.0 mm 0.41 in10.4 mm
12:20 PM 38.8°F3.8°C 33.8°F1.0°C 83% 0.6 mph N1.0 kmh N 2.7 mph4.3 kmh 29.33 in993.2 mb 0.13 in3.3 mm 0.36 in9.1 mm 0.41 in10.4 mm
12:10 PM 38.8°F3.8°C 33.8°F1.0°C 83% 0.1 mph N0.2 kmh N 0.9 mph1.4 kmh 29.33 in993.2 mb 0.07 in1.8 mm 0.00 in0.0 mm 0.35 in8.9 mm
12:00 PM 38.7°F3.7°C 33.8°F1.0°C 83% 0.2 mph N0.3 kmh N 1.3 mph2.1 kmh 29.33 in993.2 mb 0.07 in1.8 mm 0.00 in0.0 mm 0.35 in8.9 mm
11:50 AM 38.7°F3.7°C 33.8°F1.0°C 83% 0.1 mph N0.2 kmh N 1.1 mph1.8 kmh 29.36 in994.2 mb 0.13 in3.3 mm 0.00 in0.0 mm 0.35 in8.9 mm
11:40 AM 38.3°F3.5°C 33.8°F1.0°C 83% 0.4 mph N0.6 kmh N 2.7 mph4.3 kmh 29.36 in994.2 mb 0.13 in3.3 mm 0.42 in10.7 mm 0.35 in8.9 mm
11:30 AM 37.9°F3.3°C 33.8°F1.0°C 83% Calm Calm -- 29.36 in994.2 mb 0.06 in1.5 mm 0.00 in0.0 mm 0.28 in7.1 mm
11:20 AM 37.8°F3.2°C 33.8°F1.0°C 83% 1.2 mph N1.9 kmh N 4.0 mph6.4 kmh 29.36 in994.2 mb 0.06 in1.5 mm 0.00 in0.0 mm 0.28 in7.1 mm
11:10 AM 37.4°F3.0°C 33.8°F1.0°C 82% 1.1 mph N1.8 kmh N 4.3 mph6.9 kmh 29.39 in995.3 mb 0.11 in2.8 mm 0.00 in0.0 mm 0.28 in7.1 mm
11:00 AM 37.2°F2.9°C 33.8°F1.0°C 82% 3.3 mph N5.3 kmh N 6.0 mph9.7 kmh 29.39 in995.3 mb 0.11 in2.8 mm 0.06 in1.5 mm 0.28 in7.1 mm
10:50 AM 37.0°F2.8°C 33.8°F1.0°C 82% 3.6 mph N5.8 kmh N 4.7 mph7.6 kmh 29.39 in995.3 mb 0.06 in1.5 mm 0.00 in0.0 mm 0.22 in5.6 mm
10:40 AM 36.7°F2.6°C 32.0°F0.0°C 81% 5.1 mph N8.2 kmh N 8.1 mph13.0 kmh 29.41 in995.9 mb 0.06 in1.5 mm 0.00 in0.0 mm 0.22 in5.6 mm
10:30 AM 36.5°F2.5°C 32.0°F0.0°C 81% 5.4 mph N8.7 kmh N 7.2 mph11.6 kmh 29.41 in995.9 mb 0.11 in2.8 mm 0.00 in0.0 mm 0.22 in5.6 mm
10:20 AM 36.1°F2.3°C 32.0°F0.0°C 81% 7.3 mph N11.7 kmh N 9.6 mph15.4 kmh 29.45 in997.3 mb 0.11 in2.8 mm 0.30 in7.6 mm 0.22 in5.6 mm
10:10 AM 36.0°F2.2°C 30.2°F-1.0°C 81% 6.5 mph N10.5 kmh N 8.1 mph13.0 kmh 29.45 in997.3 mb 0.06 in1.5 mm 0.00 in0.0 mm 0.17 in4.3 mm
10:00 AM 35.6°F2.0°C 30.2°F-1.0°C 80% 7.3 mph N11.7 kmh N 12.8 mph20.6 kmh 29.45 in997.3 mb 0.06 in1.5 mm 0.00 in0.0 mm 0.17 in4.3 mm
09:50 AM 35.2°F1.8°C 30.2°F-1.0°C 80% 6.6 mph N10.6 kmh N 8.1 mph13.0 kmh 29.47 in998.0 mb 0.06 in1.5 mm 0.36 in9.1 mm 0.17 in4.3 mm
09:40 AM 34.9°F1.6°C 30.2°F-1.0°C 80% 8.3 mph NNE13.4 kmh NNE 12.3 mph19.8 kmh 29.50 in999.0 mb 0.00 in0.0 mm 0.00 in0.0 mm 0.11 in2.8 mm
09:30 AM 34.5°F1.4°C 30.2°F-1.0°C 80% 7.3 mph NNE11.7 kmh NNE 10.7 mph17.2 kmh 29.50 in999.0 mb 0.00 in0.0 mm 0.00 in0.0 mm 0.11 in2.8 mm
09:20 AM 34.0°F1.1°C 28.4°F-2.0°C 79% 9.2 mph NE14.8 kmh NE 17.0 mph27.4 kmh 29.50 in999.0 mb 0.00 in0.0 mm 0.00 in0.0 mm 0.11 in2.8 mm
09:10 AM 33.6°F0.9°C 28.4°F-2.0°C 79% 8.2 mph NNE13.2 kmh NNE 12.1 mph19.5 kmh 29.53 in1000.0 mb 0.00 in0.0 mm 0.00 in0.0 mm 0.11 in2.8 mm
09:00 AM 33.4°F0.8°C 28.4°F-2.0°C 79% 7.6 mph N12.2 kmh N 10.3 mph16.6 kmh 29.53 in1000.0 mb 0.00 in0.0 mm 0.00 in0.0 mm 0.11 in2.8 mm
08:50 AM 33.3°F0.7°C 28.4°F-2.0°C 79% 8.5 mph N13.7 kmh N 14.1 mph22.7 kmh 29.56 in1001.0 mb 0.00 in0.0 mm 0.00 in0.0 mm 0.11 in2.8 mm
08:40 AM 33.3°F0.7°C 28.4°F-2.0°C 79% 8.0 mph N12.9 kmh N 12.3 mph19.8 kmh 29.56 in1001.0 mb 0.00 in0.0 mm 0.00 in0.0 mm 0.11 in2.8 mm
08:30 AM 33.1°F0.6°C 26.6°F-3.0°C 78% 7.2 mph NE11.6 kmh NE 14.8 mph23.8 kmh 29.56 in1001.0 mb 0.00 in0.0 mm 0.00 in0.0 mm 0.11 in2.8 mm
08:20 AM 33.1°F0.6°C 26.6°F-3.0°C 78% 2.3 mph NNE3.7 kmh NNE 10.3 mph16.6 kmh 29.59 in1002.0 mb 0.00 in0.0 mm 0.00 in0.0 mm 0.11 in2.8 mm
08:10 AM 32.9°F0.5°C 26.6°F-3.0°C 78% 4.9 mph NE7.9 kmh NE 6.7 mph10.8 kmh 29.62 in1003.0 mb 0.00 in0.0 mm 0.00 in0.0 mm 0.11 in2.8 mm
08:00 AM 32.9°F0.5°C 26.6°F-3.0°C 78% 5.1 mph NE8.2 kmh NE 8.7 mph14.0 kmh 29.62 in1003.0 mb 0.00 in0.0 mm 0.00 in0.0 mm 0.11 in2.8 mm
07:50 AM 32.9°F0.5°C 26.6°F-3.0°C 78% 4.2 mph NE6.8 kmh NE 5.8 mph9.3 kmh 29.65 in1004.1 mb 0.00 in0.0 mm 0.00 in0.0 mm 0.11 in2.8 mm
07:40 AM 32.9°F0.5°C 26.6°F-3.0°C 78% 4.1 mph NNE6.6 kmh NNE 6.3 mph10.1 kmh 29.65 in1004.1 mb 0.00 in0.0 mm 0.00 in0.0 mm 0.11 in2.8 mm
07:30 AM 32.9°F0.5°C 26.6°F-3.0°C 78% 6.2 mph NE10.0 kmh NE 8.7 mph14.0 kmh 29.65 in1004.1 mb 0.00 in0.0 mm 0.00 in0.0 mm 0.11 in2.8 mm
07:20 AM 32.9°F0.5°C 26.6°F-3.0°C 78% 4.8 mph NE7.7 kmh NE 8.1 mph13.0 kmh 29.68 in1005.1 mb 0.00 in0.0 mm 0.00 in0.0 mm 0.11 in2.8 mm
07:10 AM 32.9°F0.5°C 26.6°F-3.0°C 77% 5.4 mph NE8.7 kmh NE 7.4 mph11.9 kmh 29.71 in1006.1 mb 0.00 in0.0 mm 0.00 in0.0 mm 0.11 in2.8 mm
07:00 AM 32.9°F0.5°C 26.6°F-3.0°C 77% 4.6 mph NNE7.4 kmh NNE 7.6 mph12.2 kmh 29.71 in1006.1 mb 0.00 in0.0 mm 0.00 in0.0 mm 0.11 in2.8 mm
06:50 AM 32.9°F0.5°C 26.6°F-3.0°C 77% 3.6 mph NE5.8 kmh NE 6.0 mph9.7 kmh 29.74 in1007.1 mb 0.00 in0.0 mm 0.00 in0.0 mm 0.11 in2.8 mm
06:40 AM 32.9°F0.5°C 26.6°F-3.0°C 77% 4.3 mph NE6.9 kmh NE 6.5 mph10.5 kmh 29.77 in1008.1 mb 0.00 in0.0 mm 0.00 in0.0 mm 0.11 in2.8 mm
06:30 AM 33.1°F0.6°C 26.6°F-3.0°C 77% 4.4 mph NE7.1 kmh NE 7.4 mph11.9 kmh 29.77 in1008.1 mb 0.00 in0.0 mm 0.00 in0.0 mm 0.11 in2.8 mm
06:20 AM 33.1°F0.6°C 26.6°F-3.0°C 77% 3.3 mph N5.3 kmh N 4.3 mph6.9 kmh 29.80 in1009.1 mb 0.00 in0.0 mm 0.00 in0.0 mm 0.11 in2.8 mm
06:10 AM 33.3°F0.7°C 26.6°F-3.0°C 77% 3.7 mph N6.0 kmh N 5.6 mph9.0 kmh 29.83 in1010.2 mb 0.00 in0.0 mm 0.00 in0.0 mm 0.11 in2.8 mm
06:00 AM 33.4°F0.8°C 28.4°F-2.0°C 77% 3.8 mph NNE6.1 kmh NNE 6.9 mph11.1 kmh 29.83 in1010.2 mb 0.06 in1.5 mm 0.00 in0.0 mm 0.11 in2.8 mm
05:50 AM 33.8°F1.0°C 26.6°F-3.0°C 76% 4.8 mph N7.7 kmh N 8.5 mph13.7 kmh 29.83 in1010.2 mb 0.11 in2.8 mm 0.00 in0.0 mm 0.11 in2.8 mm
05:40 AM 34.2°F1.2°C 28.4°F-2.0°C 76% 4.0 mph N6.4 kmh N 5.8 mph9.3 kmh 29.86 in1011.2 mb 0.11 in2.8 mm 0.00 in0.0 mm 0.11 in2.8 mm
05:30 AM 34.5°F1.4°C 28.4°F-2.0°C 76% 3.9 mph N6.3 kmh N 6.3 mph10.1 kmh 29.86 in1011.2 mb 0.11 in2.8 mm 0.00 in0.0 mm 0.11 in2.8 mm
05:20 AM 34.7°F1.5°C 28.4°F-2.0°C 76% 5.3 mph N8.5 kmh N 6.5 mph10.5 kmh 29.86 in1011.2 mb 0.11 in2.8 mm 0.00 in0.0 mm 0.11 in2.8 mm
05:10 AM 35.1°F1.7°C 28.4°F-2.0°C 76% 4.8 mph N7.7 kmh N 7.4 mph11.9 kmh 29.89 in1012.2 mb 0.11 in2.8 mm 0.30 in7.6 mm 0.11 in2.8 mm
05:00 AM 35.6°F2.0°C 30.2°F-1.0°C 75% 6.2 mph N10.0 kmh N 9.6 mph15.4 kmh 29.89 in1012.2 mb 0.06 in1.5 mm 0.07 in1.8 mm 0.06 in1.5 mm
04:50 AM 36.0°F2.2°C 28.4°F-2.0°C 74% 5.7 mph N9.2 kmh N 9.6 mph15.4 kmh 29.89 in1012.2 mb 0.00 in0.0 mm 0.00 in0.0 mm 0.00 in0.0 mm
04:40 AM 36.5°F2.5°C 30.2°F-1.0°C 73% 5.9 mph N9.5 kmh N 9.4 mph15.1 kmh 29.92 in1013.2 mb 0.00 in0.0 mm 0.00 in0.0 mm 0.00 in0.0 mm
04:30 AM 36.9°F2.7°C 30.2°F-1.0°C 73% 4.9 mph N7.9 kmh N 7.8 mph12.6 kmh 29.92 in1013.2 mb 0.00 in0.0 mm 0.00 in0.0 mm 0.00 in0.0 mm
04:20 AM 36.9°F2.7°C 30.2°F-1.0°C 73% 6.3 mph N10.1 kmh N 10.5 mph16.9 kmh 29.92 in1013.2 mb 0.00 in0.0 mm 0.00 in0.0 mm 0.00 in0.0 mm
04:10 AM 36.7°F2.6°C 30.2°F-1.0°C 74% 3.7 mph N6.0 kmh N 5.6 mph9.0 kmh 29.92 in1013.2 mb 0.00 in0.0 mm 0.00 in0.0 mm 0.00 in0.0 mm
04:00 AM 36.0°F2.2°C 30.2°F-1.0°C 75% 1.9 mph N3.1 kmh N 5.8 mph9.3 kmh 29.92 in1013.2 mb 0.00 in0.0 mm 0.00 in0.0 mm 0.00 in0.0 mm
03:50 AM 35.1°F1.7°C 28.4°F-2.0°C 75% 1.1 mph ENE1.8 kmh ENE 3.4 mph5.5 kmh 29.95 in1014.2 mb 0.00 in0.0 mm 0.00 in0.0 mm 0.00 in0.0 mm
03:40 AM 34.7°F1.5°C 28.4°F-2.0°C 74% 0.2 mph N0.3 kmh N 1.6 mph2.6 kmh 29.95 in1014.2 mb 0.00 in0.0 mm 0.00 in0.0 mm 0.00 in0.0 mm
03:30 AM 34.5°F1.4°C 26.6°F-3.0°C 74% Calm Calm -- 29.95 in1014.2 mb 0.00 in0.0 mm 0.00 in0.0 mm 0.00 in0.0 mm
03:20 AM 34.5°F1.4°C 26.6°F-3.0°C 74% Calm Calm -- 29.98 in1015.2 mb 0.00 in0.0 mm 0.00 in0.0 mm 0.00 in0.0 mm
03:10 AM 34.5°F1.4°C 26.6°F-3.0°C 74% 0.1 mph ENE0.2 kmh ENE 1.1 mph1.8 kmh 29.98 in1015.2 mb 0.00 in0.0 mm 0.00 in0.0 mm 0.00 in0.0 mm
03:00 AM 34.2°F1.2°C 26.6°F-3.0°C 74% Calm Calm -- 29.98 in1015.2 mb 0.00 in0.0 mm 0.00 in0.0 mm 0.00 in0.0 mm
02:50 AM 34.2°F1.2°C 26.6°F-3.0°C 74% Calm Calm -- 29.98 in1015.2 mb 0.00 in0.0 mm 0.00 in0.0 mm 0.00 in0.0 mm
02:40 AM 34.2°F1.2°C 26.6°F-3.0°C 74% Calm Calm -- 30.01 in1016.3 mb 0.00 in0.0 mm 0.00 in0.0 mm 0.00 in0.0 mm
02:30 AM 34.2°F1.2°C 26.6°F-3.0°C 74% 0.3 mph NE0.5 kmh NE 2.7 mph4.3 kmh 30.01 in1016.3 mb 0.00 in0.0 mm 0.00 in0.0 mm 0.00 in0.0 mm
02:20 AM 34.2°F1.2°C 26.6°F-3.0°C 74% 0.8 mph NE1.3 kmh NE 2.7 mph4.3 kmh 30.01 in1016.3 mb 0.00 in0.0 mm 0.00 in0.0 mm 0.00 in0.0 mm
02:10 AM 34.0°F1.1°C 26.6°F-3.0°C 73% Calm Calm -- 30.04 in1017.3 mb 0.00 in0.0 mm 0.00 in0.0 mm 0.00 in0.0 mm
02:00 AM 34.0°F1.1°C 26.6°F-3.0°C 73% 0.4 mph ENE0.6 kmh ENE 3.1 mph5.0 kmh 30.04 in1017.3 mb 0.00 in0.0 mm 0.00 in0.0 mm 0.00 in0.0 mm
01:50 AM 33.8°F1.0°C 26.6°F-3.0°C 73% Calm Calm -- 30.07 in1018.3 mb 0.00 in0.0 mm 0.00 in0.0 mm 0.00 in0.0 mm
01:40 AM 33.8°F1.0°C 26.6°F-3.0°C 73% 0.2 mph NE0.3 kmh NE 2.0 mph3.2 kmh 30.07 in1018.3 mb 0.00 in0.0 mm 0.00 in0.0 mm 0.00 in0.0 mm
01:30 AM 33.8°F1.0°C 26.6°F-3.0°C 73% 2.4 mph NE3.9 kmh NE 3.4 mph5.5 kmh 30.07 in1018.3 mb 0.00 in0.0 mm 0.00 in0.0 mm 0.00 in0.0 mm
01:20 AM 33.8°F1.0°C 26.6°F-3.0°C 73% Calm Calm -- 30.07 in1018.3 mb 0.00 in0.0 mm 0.00 in0.0 mm 0.00 in0.0 mm
01:10 AM 33.8°F1.0°C 26.6°F-3.0°C 73% Calm Calm -- 30.07 in1018.3 mb 0.00 in0.0 mm 0.00 in0.0 mm 0.00 in0.0 mm
01:00 AM 33.8°F1.0°C 26.6°F-3.0°C 73% 0.7 mph NE1.1 kmh NE 3.1 mph5.0 kmh 30.07 in1018.3 mb 0.00 in0.0 mm 0.00 in0.0 mm 0.00 in0.0 mm
12:50 AM 33.6°F0.9°C 26.6°F-3.0°C 72% Calm Calm -- 30.07 in1018.3 mb 0.00 in0.0 mm 0.00 in0.0 mm 0.00 in0.0 mm
12:40 AM 33.8°F1.0°C 26.6°F-3.0°C 72% Calm Calm -- 30.09 in1019.0 mb 0.00 in0.0 mm 0.00 in0.0 mm 0.00 in0.0 mm
12:30 AM 33.6°F0.9°C 26.6°F-3.0°C 72% Calm Calm -- 30.09 in1019.0 mb 0.00 in0.0 mm 0.00 in0.0 mm 0.00 in0.0 mm
12:20 AM 33.8°F1.0°C 26.6°F-3.0°C 72% Calm Calm -- 30.09 in1019.0 mb 0.00 in0.0 mm 0.00 in0.0 mm 0.00 in0.0 mm
12:10 AM 33.8°F1.0°C 26.6°F-3.0°C 72% Calm Calm -- 30.09 in1019.0 mb 0.00 in0.0 mm 0.00 in0.0 mm 0.00 in0.0 mm
12:00 AM 33.6°F0.9°C 26.6°F-3.0°C 71% Calm Calm -- 30.09 in1019.0 mb 0.00 in0.0 mm 0.00 in0.0 mm 0.00 in0.0 mm